sensor_id;sensor_type;location;lat;lon;timestamp;pressure;altitude;pressure_sealevel;temperature;humidity
63552;BME280;49698;48.072;7.800;2024-03-02T00:00:40;98190.84;;;3.00;99.97
63552;BME280;49698;48.072;7.800;2024-03-02T00:03:08;98190.06;;;3.00;100.00
63552;BME280;49698;48.072;7.800;2024-03-02T00:05:38;98195.63;;;2.98;100.00
63552;BME280;49698;48.072;7.800;2024-03-02T00:08:06;98192.97;;;2.98;100.00
63552;BME280;49698;48.072;7.800;2024-03-02T00:10:35;98188.22;;;2.95;100.00
63552;BME280;49698;48.072;7.800;2024-03-02T00:13:06;98185.00;;;2.93;99.90
63552;BME280;49698;48.072;7.800;2024-03-02T00:15:40;98195.34;;;2.89;99.85
63552;BME280;49698;48.072;7.800;2024-03-02T00:18:10;98196.69;;;2.87;100.00
63552;BME280;49698;48.072;7.800;2024-03-02T00:20:40;98194.28;;;2.85;100.00
63552;BME280;49698;48.072;7.800;2024-03-02T00:23:08;98200.09;;;2.82;100.00
63552;BME280;49698;48.072;7.800;2024-03-02T00:25:40;98199.03;;;2.78;100.00
63552;BME280;49698;48.072;7.800;2024-03-02T00:28:11;98200.59;;;2.74;100.00
63552;BME280;49698;48.072;7.800;2024-03-02T00:30:46;98203.53;;;2.67;100.00
63552;BME280;49698;48.072;7.800;2024-03-02T00:33:18;98204.03;;;2.64;100.00
63552;BME280;49698;48.072;7.800;2024-03-02T00:35:48;98197.66;;;2.60;100.00
63552;BME280;49698;48.072;7.800;2024-03-02T00:38:16;98205.06;;;2.58;100.00
63552;BME280;49698;48.072;7.800;2024-03-02T00:40:44;98201.63;;;2.58;100.00
63552;BME280;49698;48.072;7.800;2024-03-02T00:43:25;98198.19;;;2.57;100.00
63552;BME280;49698;48.072;7.800;2024-03-02T00:46:01;98197.38;;;2.57;100.00
63552;BME280;49698;48.072;7.800;2024-03-02T00:48:29;98191.28;;;2.56;100.00
63552;BME280;49698;48.072;7.800;2024-03-02T00:50:59;98194.97;;;2.55;100.00
63552;BME280;49698;48.072;7.800;2024-03-02T00:53:27;98195.25;;;2.54;100.00
63552;BME280;49698;48.072;7.800;2024-03-02T00:55:55;98199.19;;;2.51;100.00
63552;BME280;49698;48.072;7.800;2024-03-02T00:58:23;98192.31;;;2.50;100.00
63552;BME280;49698;48.072;7.800;2024-03-02T01:00:51;98186.22;;;2.50;100.00
63552;BME280;49698;48.072;7.800;2024-03-02T01:03:19;98188.31;;;2.48;100.00
63552;BME280;49698;48.072;7.800;2024-03-02T01:05:47;98195.47;;;2.47;100.00
63552;BME280;49698;48.072;7.800;2024-03-02T01:08:16;98188.06;;;2.44;100.00
63552;BME280;49698;48.072;7.800;2024-03-02T01:10:44;98192.53;;;2.43;100.00
63552;BME280;49698;48.072;7.800;2024-03-02T01:13:12;98193.88;;;2.41;100.00
63552;BME280;49698;48.072;7.800;2024-03-02T01:15:40;98191.72;;;2.38;100.00
63552;BME280;49698;48.072;7.800;2024-03-02T01:18:07;98198.09;;;2.37;100.00
63552;BME280;49698;48.072;7.800;2024-03-02T01:20:35;98191.44;;;2.34;100.00
63552;BME280;49698;48.072;7.800;2024-03-02T01:23:03;98197.03;;;2.33;100.00
63552;BME280;49698;48.072;7.800;2024-03-02T01:25:32;98192.50;;;2.33;100.00
63552;BME280;49698;48.072;7.800;2024-03-02T01:28:00;98199.91;;;2.31;100.00
63552;BME280;49698;48.072;7.800;2024-03-02T01:30:28;98194.88;;;2.30;100.00
63552;BME280;49698;48.072;7.800;2024-03-02T01:32:56;98194.34;;;2.28;100.00
63552;BME280;49698;48.072;7.800;2024-03-02T01:35:25;98196.47;;;2.26;100.00
63552;BME280;49698;48.072;7.800;2024-03-02T01:37:54;98195.38;;;2.22;100.00
63552;BME280;49698;48.072;7.800;2024-03-02T01:40:21;98197.47;;;2.19;100.00
63552;BME280;49698;48.072;7.800;2024-03-02T01:42:54;98195.09;;;2.18;100.00
63552;BME280;49698;48.072;7.800;2024-03-02T01:45:24;98198.53;;;2.13;100.00
63552;BME280;49698;48.072;7.800;2024-03-02T01:47:52;98194.53;;;2.11;100.00
63552;BME280;49698;48.072;7.800;2024-03-02T01:50:26;98196.63;;;2.09;100.00
63552;BME280;49698;48.072;7.800;2024-03-02T01:52:55;98195.81;;;2.08;100.00
63552;BME280;49698;48.072;7.800;2024-03-02T01:55:23;98191.59;;;2.07;100.00
63552;BME280;49698;48.072;7.800;2024-03-02T01:57:51;98183.34;;;2.04;100.00
63552;BME280;49698;48.072;7.800;2024-03-02T02:00:20;98186.25;;;2.02;100.00
63552;BME280;49698;48.072;7.800;2024-03-02T02:02:51;98186.22;;;1.97;100.00
63552;BME280;49698;48.072;7.800;2024-03-02T02:05:19;98185.13;;;1.93;100.00
63552;BME280;49698;48.072;7.800;2024-03-02T02:07:47;98179.53;;;1.89;100.00
63552;BME280;49698;48.072;7.800;2024-03-02T02:10:15;98168.91;;;1.84;100.00
63552;BME280;49698;48.072;7.800;2024-03-02T02:12:43;98175.53;;;1.82;100.00
63552;BME280;49698;48.072;7.800;2024-03-02T02:15:25;98172.34;;;1.80;100.00
63552;BME280;49698;48.072;7.800;2024-03-02T02:17:53;98177.34;;;1.76;100.00
63552;BME280;49698;48.072;7.800;2024-03-02T02:20:21;98171.50;;;1.74;100.00
63552;BME280;49698;48.072;7.800;2024-03-02T02:22:58;98163.56;;;1.74;100.00
63552;BME280;49698;48.072;7.800;2024-03-02T02:25:26;98161.16;;;1.73;100.00
63552;BME280;49698;48.072;7.800;2024-03-02T02:27:54;98161.69;;;1.69;100.00
63552;BME280;49698;48.072;7.800;2024-03-02T02:30:24;98160.09;;;1.68;100.00
63552;BME280;49698;48.072;7.800;2024-03-02T02:32:52;98148.94;;;1.66;100.00
63552;BME280;49698;48.072;7.800;2024-03-02T02:35:21;98148.13;;;1.66;100.00
63552;BME280;49698;48.072;7.800;2024-03-02T02:37:51;98151.06;;;1.64;100.00
63552;BME280;49698;48.072;7.800;2024-03-02T02:40:21;98138.31;;;1.61;100.00
63552;BME280;49698;48.072;7.800;2024-03-02T02:42:49;98149.19;;;1.60;100.00
63552;BME280;49698;48.072;7.800;2024-03-02T02:45:18;98144.13;;;1.58;100.00
63552;BME280;49698;48.072;7.800;2024-03-02T02:47:46;98133.00;;;1.56;100.00
63552;BME280;49698;48.072;7.800;2024-03-02T02:50:14;98135.88;;;1.55;100.00
63552;BME280;49698;48.072;7.800;2024-03-02T02:52:42;98134.28;;;1.54;100.00
63552;BME280;49698;48.072;7.800;2024-03-02T02:55:10;98127.69;;;1.51;100.00
63552;BME280;49698;48.072;7.800;2024-03-02T02:57:40;98129.78;;;1.49;100.00
63552;BME280;49698;48.072;7.800;2024-03-02T03:00:09;98126.56;;;1.47;100.00
63552;BME280;49698;48.072;7.800;2024-03-02T03:02:40;98132.91;;;1.46;100.00
63552;BME280;49698;48.072;7.800;2024-03-02T03:05:09;98121.78;;;1.44;100.00
63552;BME280;49698;48.072;7.800;2024-03-02T03:07:37;98120.19;;;1.43;100.00
63552;BME280;49698;48.072;7.800;2024-03-02T03:10:06;98120.19;;;1.43;100.00
63552;BME280;49698;48.072;7.800;2024-03-02T03:12:34;98118.59;;;1.42;100.00
63552;BME280;49698;48.072;7.800;2024-03-02T03:15:07;98114.34;;;1.41;100.00
63552;BME280;49698;48.072;7.800;2024-03-02T03:17:35;98118.06;;;1.40;100.00
63552;BME280;49698;48.072;7.800;2024-03-02T03:20:04;98120.16;;;1.38;100.00
63552;BME280;49698;48.072;7.800;2024-03-02T03:22:36;98102.13;;;1.35;100.00
63552;BME280;49698;48.072;7.800;2024-03-02T03:25:04;98112.72;;;1.35;100.00
63552;BME280;49698;48.072;7.800;2024-03-02T03:27:32;98115.38;;;1.35;100.00
63552;BME280;49698;48.072;7.800;2024-03-02T03:30:00;98119.88;;;1.34;100.00
63552;BME280;49698;48.072;7.800;2024-03-02T03:32:29;98106.84;;;1.28;100.00
63552;BME280;49698;48.072;7.800;2024-03-02T03:34:57;98101.00;;;1.26;100.00
63552;BME280;49698;48.072;7.800;2024-03-02T03:37:24;98106.81;;;1.22;100.00
63552;BME280;49698;48.072;7.800;2024-03-02T03:39:59;98107.06;;;1.21;100.00
63552;BME280;49698;48.072;7.800;2024-03-02T03:42:27;98098.56;;;1.19;100.00
63552;BME280;49698;48.072;7.800;2024-03-02T03:44:55;98106.78;;;1.17;100.00
63552;BME280;49698;48.072;7.800;2024-03-02T03:47:22;98105.19;;;1.16;100.00
63552;BME280;49698;48.072;7.800;2024-03-02T03:49:52;98121.06;;;1.16;100.00
63552;BME280;49698;48.072;7.800;2024-03-02T03:52:19;98121.06;;;1.16;100.00
63552;BME280;49698;48.072;7.800;2024-03-02T03:54:47;98118.97;;;1.18;100.00
63552;BME280;49698;48.072;7.800;2024-03-02T03:57:15;98115.78;;;1.16;100.00
63552;BME280;49698;48.072;7.800;2024-03-02T03:59:43;98119.22;;;1.17;100.00
63552;BME280;49698;48.072;7.800;2024-03-02T04:02:11;98114.94;;;1.16;100.00
63552;BME280;49698;48.072;7.800;2024-03-02T04:04:39;98122.09;;;1.15;100.00
63552;BME280;49698;48.072;7.800;2024-03-02T04:07:08;98125.00;;;1.14;100.00
63552;BME280;49698;48.072;7.800;2024-03-02T04:09:36;98124.44;;;1.12;100.00
63552;BME280;49698;48.072;7.800;2024-03-02T04:12:04;98122.88;;;1.11;100.00
63552;BME280;49698;48.072;7.800;2024-03-02T04:14:31;98128.16;;;1.11;100.00
63552;BME280;49698;48.072;7.800;2024-03-02T04:17:00;98132.66;;;1.10;100.00
63552;BME280;49698;48.072;7.800;2024-03-02T04:19:27;98134.75;;;1.08;100.00
63552;BME280;49698;48.072;7.800;2024-03-02T04:21:55;98131.31;;;1.08;100.00
63552;BME280;49698;48.072;7.800;2024-03-02T04:24:26;98135.00;;;1.07;100.00
63552;BME280;49698;48.072;7.800;2024-03-02T04:26:54;98126.28;;;1.06;100.00
63552;BME280;49698;48.072;7.800;2024-03-02T04:29:22;98141.34;;;1.06;100.00
63552;BME280;49698;48.072;7.800;2024-03-02T04:31:50;98141.59;;;1.04;100.00
63552;BME280;49698;48.072;7.800;2024-03-02T04:34:18;98141.84;;;1.03;100.00
63552;BME280;49698;48.072;7.800;2024-03-02T04:36:46;98150.84;;;1.02;100.00
63552;BME280;49698;48.072;7.800;2024-03-02T04:39:13;98145.78;;;1.00;100.00
63552;BME280;49698;48.072;7.800;2024-03-02T04:41:42;98150.06;;;1.01;100.00
63552;BME280;49698;48.072;7.800;2024-03-02T04:44:10;98148.19;;;1.02;100.00
63552;BME280;49698;48.072;7.800;2024-03-02T04:46:38;98151.63;;;1.02;100.00
63552;BME280;49698;48.072;7.800;2024-03-02T04:49:06;98153.22;;;1.03;100.00
63552;BME280;49698;48.072;7.800;2024-03-02T04:51:34;98146.88;;;1.04;100.00
63552;BME280;49698;48.072;7.800;2024-03-02T04:54:02;98145.84;;;1.05;100.00
63552;BME280;49698;48.072;7.800;2024-03-02T04:56:30;98145.31;;;1.08;100.00
63552;BME280;49698;48.072;7.800;2024-03-02T04:59:12;98137.16;;;1.10;100.00
63552;BME280;49698;48.072;7.800;2024-03-02T05:01:40;98141.94;;;1.13;100.00
63552;BME280;49698;48.072;7.800;2024-03-02T05:04:07;98140.09;;;1.13;100.00
63552;BME280;49698;48.072;7.800;2024-03-02T05:06:38;98140.63;;;1.15;100.00
63552;BME280;49698;48.072;7.800;2024-03-02T05:09:06;98141.19;;;1.17;100.00
63552;BME280;49698;48.072;7.800;2024-03-02T05:11:34;98146.22;;;1.19;100.00
63552;BME280;49698;48.072;7.800;2024-03-02T05:14:17;98142.78;;;1.18;100.00
63552;BME280;49698;48.072;7.800;2024-03-02T05:16:45;98149.66;;;1.19;100.00
63552;BME280;49698;48.072;7.800;2024-03-02T05:19:13;98149.91;;;1.18;100.00
63552;BME280;49698;48.072;7.800;2024-03-02T05:21:41;98145.91;;;1.15;100.00
63552;BME280;49698;48.072;7.800;2024-03-02T05:24:09;98149.63;;;1.14;100.00
63552;BME280;49698;48.072;7.800;2024-03-02T05:26:37;98144.34;;;1.14;100.00
63552;BME280;49698;48.072;7.800;2024-03-02T05:29:05;98141.16;;;1.12;100.00
63552;BME280;49698;48.072;7.800;2024-03-02T05:31:35;98141.16;;;1.12;100.00
63552;BME280;49698;48.072;7.800;2024-03-02T05:34:03;98142.75;;;1.13;100.00
63552;BME280;49698;48.072;7.800;2024-03-02T05:36:32;98154.38;;;1.12;100.00
63552;BME280;49698;48.072;7.800;2024-03-02T05:39:00;98151.75;;;1.12;100.00
63552;BME280;49698;48.072;7.800;2024-03-02T05:41:28;98154.91;;;1.14;100.00
63552;BME280;49698;48.072;7.800;2024-03-02T05:43:55;98148.34;;;1.17;100.00
63552;BME280;49698;48.072;7.800;2024-03-02T05:46:23;98143.84;;;1.17;100.00
63552;BME280;49698;48.072;7.800;2024-03-02T05:48:52;98146.22;;;1.19;100.00
63552;BME280;49698;48.072;7.800;2024-03-02T05:51:20;98156.31;;;1.22;100.00
63552;BME280;49698;48.072;7.800;2024-03-02T05:53:48;98142.56;;;1.25;100.00
63552;BME280;49698;48.072;7.800;2024-03-02T05:56:16;98148.16;;;1.29;100.00
63552;BME280;49698;48.072;7.800;2024-03-02T05:58:44;98147.41;;;1.33;100.00
63552;BME280;49698;48.072;7.800;2024-03-02T06:01:24;98137.09;;;1.37;100.00
63552;BME280;49698;48.072;7.800;2024-03-02T06:03:56;98153.00;;;1.42;100.00
63552;BME280;49698;48.072;7.800;2024-03-02T06:06:25;98142.72;;;1.45;100.00
63552;BME280;49698;48.072;7.800;2024-03-02T06:08:53;98144.06;;;1.48;100.00
63552;BME280;49698;48.072;7.800;2024-03-02T06:11:21;98144.88;;;1.49;100.00
63552;BME280;49698;48.072;7.800;2024-03-02T06:13:48;98143.81;;;1.50;100.00
63552;BME280;49698;48.072;7.800;2024-03-02T06:16:16;98141.94;;;1.50;100.00
63552;BME280;49698;48.072;7.800;2024-03-02T06:18:44;98146.75;;;1.53;100.00
63552;BME280;49698;48.072;7.800;2024-03-02T06:21:13;98135.88;;;1.55;100.00
63552;BME280;49698;48.072;7.800;2024-03-02T06:23:41;98133.00;;;1.56;100.00
63552;BME280;49698;48.072;7.800;2024-03-02T06:26:09;98133.53;;;1.58;100.00
63552;BME280;49698;48.072;7.800;2024-03-02T06:28:37;98130.88;;;1.58;100.00
63552;BME280;49698;48.072;7.800;2024-03-02T06:31:04;98135.94;;;1.60;100.00
63552;BME280;49698;48.072;7.800;2024-03-02T06:33:32;98135.94;;;1.60;100.00
63552;BME280;49698;48.072;7.800;2024-03-02T06:36:00;98136.72;;;1.60;100.00
63552;BME280;49698;48.072;7.800;2024-03-02T06:38:29;98126.13;;;1.60;100.00
63552;BME280;49698;48.072;7.800;2024-03-02T06:40:58;98135.13;;;1.59;100.00
63552;BME280;49698;48.072;7.800;2024-03-02T06:43:26;98131.16;;;1.57;100.00
63552;BME280;49698;48.072;7.800;2024-03-02T06:45:54;98133.53;;;1.58;100.00
63552;BME280;49698;48.072;7.800;2024-03-02T06:48:22;98137.22;;;1.57;100.00
63552;BME280;49698;48.072;7.800;2024-03-02T06:50:51;98138.81;;;1.58;100.00
63552;BME280;49698;48.072;7.800;2024-03-02T06:53:19;98134.34;;;1.59;100.00
63552;BME280;49698;48.072;7.800;2024-03-02T06:55:49;98135.66;;;1.61;100.00
63552;BME280;49698;48.072;7.800;2024-03-02T06:58:16;98140.47;;;1.64;100.00
63552;BME280;49698;48.072;7.800;2024-03-02T07:00:44;98137.31;;;1.67;100.00
63552;BME280;49698;48.072;7.800;2024-03-02T07:03:12;98134.16;;;1.70;100.00
63552;BME280;49698;48.072;7.800;2024-03-02T07:05:40;98143.97;;;1.75;100.00
63552;BME280;49698;48.072;7.800;2024-03-02T07:08:08;98132.59;;;1.80;100.00
63552;BME280;49698;48.072;7.800;2024-03-02T07:10:36;98128.91;;;1.86;100.00
63552;BME280;49698;48.072;7.800;2024-03-02T07:13:05;98126.31;;;1.91;100.00
63552;BME280;49698;48.072;7.800;2024-03-02T07:15:33;98134.56;;;2.00;100.00
63552;BME280;49698;48.072;7.800;2024-03-02T07:18:21;98131.69;;;2.06;100.00
63552;BME280;49698;48.072;7.800;2024-03-02T07:20:48;98126.94;;;2.13;100.00
63552;BME280;49698;48.072;7.800;2024-03-02T07:23:16;98127.47;;;2.20;100.00
63552;BME280;49698;48.072;7.800;2024-03-02T07:25:44;98132.31;;;2.29;100.00
63552;BME280;49698;48.072;7.800;2024-03-02T07:28:16;98133.66;;;2.36;100.00
63552;BME280;49698;48.072;7.800;2024-03-02T07:30:44;98124.41;;;2.44;100.00
63552;BME280;49698;48.072;7.800;2024-03-02T07:33:12;98125.47;;;2.53;100.00
63552;BME280;49698;48.072;7.800;2024-03-02T07:35:40;98128.69;;;2.60;100.00
63552;BME280;49698;48.072;7.800;2024-03-02T07:38:08;98136.13;;;2.68;100.00
63552;BME280;49698;48.072;7.800;2024-03-02T07:40:36;98135.63;;;2.77;100.00
63552;BME280;49698;48.072;7.800;2024-03-02T07:43:03;98129.78;;;2.85;100.00
63552;BME280;49698;48.072;7.800;2024-03-02T07:45:33;98122.88;;;2.94;100.00
63552;BME280;49698;48.072;7.800;2024-03-02T07:48:02;98123.69;;;3.05;100.00
63552;BME280;49698;48.072;7.800;2024-03-02T07:50:31;98131.13;;;3.13;100.00
63552;BME280;49698;48.072;7.800;2024-03-02T07:53:01;98116.00;;;3.24;100.00
63552;BME280;49698;48.072;7.800;2024-03-02T07:55:29;98128.22;;;3.35;99.94
63552;BME280;49698;48.072;7.800;2024-03-02T07:57:57;98120.25;;;3.45;99.82
63552;BME280;49698;48.072;7.800;2024-03-02T08:00:25;98121.28;;;3.54;99.57
63552;BME280;49698;48.072;7.800;2024-03-02T08:02:55;98115.97;;;3.64;99.52
63552;BME280;49698;48.072;7.800;2024-03-02T08:05:23;98109.81;;;3.74;99.39
63552;BME280;49698;48.072;7.800;2024-03-02T08:07:51;98118.03;;;3.83;99.14
63552;BME280;49698;48.072;7.800;2024-03-02T08:10:20;98115.91;;;3.95;99.12
63552;BME280;49698;48.072;7.800;2024-03-02T08:12:48;98112.09;;;4.06;98.91
63552;BME280;49698;48.072;7.800;2024-03-02T08:15:16;98115.00;;;4.20;98.74
63552;BME280;49698;48.072;7.800;2024-03-02T08:17:43;98114.41;;;4.33;98.45
63552;BME280;49698;48.072;7.800;2024-03-02T08:20:18;98118.84;;;4.48;97.84
63552;BME280;49698;48.072;7.800;2024-03-02T08:22:46;98110.00;;;4.63;97.78
63552;BME280;49698;48.072;7.800;2024-03-02T08:25:14;98106.94;;;4.80;97.38
63552;BME280;49698;48.072;7.800;2024-03-02T08:27:42;98099.88;;;4.99;96.78
63552;BME280;49698;48.072;7.800;2024-03-02T08:30:10;98100.25;;;5.22;96.17
63552;BME280;49698;48.072;7.800;2024-03-02T08:32:38;98100.53;;;5.49;95.52
63552;BME280;49698;48.072;7.800;2024-03-02T08:35:07;98109.31;;;5.79;95.25
63552;BME280;49698;48.072;7.800;2024-03-02T08:37:36;98107.44;;;6.08;94.32
63552;BME280;49698;48.072;7.800;2024-03-02T08:40:05;98110.78;;;6.38;93.31
63552;BME280;49698;48.072;7.800;2024-03-02T08:42:33;98108.22;;;6.71;91.54
63552;BME280;49698;48.072;7.800;2024-03-02T08:45:01;98114.91;;;7.06;90.44
63552;BME280;49698;48.072;7.800;2024-03-02T08:47:29;98109.00;;;7.42;88.97
63552;BME280;49698;48.072;7.800;2024-03-02T08:49:57;98111.34;;;7.76;87.29
63552;BME280;49698;48.072;7.800;2024-03-02T08:52:26;98105.59;;;8.10;85.75
63552;BME280;49698;48.072;7.800;2024-03-02T08:54:55;98109.59;;;8.40;84.52
63552;BME280;49698;48.072;7.800;2024-03-02T08:57:23;98101.97;;;8.70;84.20
63552;BME280;49698;48.072;7.800;2024-03-02T08:59:51;98094.16;;;8.96;83.10
63552;BME280;49698;48.072;7.800;2024-03-02T09:02:19;98095.41;;;9.21;82.38
63552;BME280;49698;48.072;7.800;2024-03-02T09:04:47;98104.56;;;9.42;81.49
63552;BME280;49698;48.072;7.800;2024-03-02T09:07:15;98102.47;;;9.62;81.20
63552;BME280;49698;48.072;7.800;2024-03-02T09:09:42;98107.59;;;9.80;80.54
63552;BME280;49698;48.072;7.800;2024-03-02T09:12:11;98101.50;;;9.97;80.14
63552;BME280;49698;48.072;7.800;2024-03-02T09:14:40;98098.41;;;10.13;80.06
63552;BME280;49698;48.072;7.800;2024-03-02T09:17:08;98100.19;;;10.26;79.08
63552;BME280;49698;48.072;7.800;2024-03-02T09:19:37;98113.06;;;10.38;79.05
63552;BME280;49698;48.072;7.800;2024-03-02T09:22:07;98099.97;;;10.53;78.85
63552;BME280;49698;48.072;7.800;2024-03-02T09:24:36;98093.31;;;10.68;78.22
63552;BME280;49698;48.072;7.800;2024-03-02T09:27:04;98096.34;;;10.84;77.79
63552;BME280;49698;48.072;7.800;2024-03-02T09:29:33;98099.81;;;11.02;77.44
63552;BME280;49698;48.072;7.800;2024-03-02T09:32:01;98097.91;;;11.20;76.22
63552;BME280;49698;48.072;7.800;2024-03-02T09:34:29;98090.13;;;11.36;75.64
63552;BME280;49698;48.072;7.800;2024-03-02T09:36:57;98093.88;;;11.52;74.94
63552;BME280;49698;48.072;7.800;2024-03-02T09:39:24;98081.66;;;11.63;74.67
63552;BME280;49698;48.072;7.800;2024-03-02T09:41:52;98086.88;;;11.68;74.41
63552;BME280;49698;48.072;7.800;2024-03-02T09:44:21;98086.56;;;11.70;74.09
63552;BME280;49698;48.072;7.800;2024-03-02T09:46:50;98083.22;;;11.73;73.99
63552;BME280;49698;48.072;7.800;2024-03-02T09:49:18;98077.50;;;11.83;73.41
63552;BME280;49698;48.072;7.800;2024-03-02T09:51:47;98073.50;;;11.98;73.07
63552;BME280;49698;48.072;7.800;2024-03-02T09:54:15;98071.03;;;12.14;72.60
63552;BME280;49698;48.072;7.800;2024-03-02T09:56:43;98058.13;;;12.28;71.47
63552;BME280;49698;48.072;7.800;2024-03-02T09:59:11;98064.50;;;12.44;70.69
63552;BME280;49698;48.072;7.800;2024-03-02T10:01:56;98062.38;;;12.59;70.13
63552;BME280;49698;48.072;7.800;2024-03-02T10:04:25;98064.00;;;12.72;69.17
63552;BME280;49698;48.072;7.800;2024-03-02T10:07:04;98060.56;;;12.84;68.48
63552;BME280;49698;48.072;7.800;2024-03-02T10:09:37;98063.31;;;12.96;68.32
63552;BME280;49698;48.072;7.800;2024-03-02T10:12:05;98056.53;;;13.11;68.15
63552;BME280;49698;48.072;7.800;2024-03-02T10:14:33;98055.94;;;13.26;66.97
63552;BME280;49698;48.072;7.800;2024-03-02T10:17:03;98051.47;;;13.42;66.33
63552;BME280;49698;48.072;7.800;2024-03-02T10:19:31;98046.56;;;13.57;65.84
63552;BME280;49698;48.072;7.800;2024-03-02T10:22:01;98042.53;;;13.63;63.93
63552;BME280;49698;48.072;7.800;2024-03-02T10:24:34;98038.94;;;13.71;63.55
63552;BME280;49698;48.072;7.800;2024-03-02T10:27:06;98035.34;;;13.79;63.20
63552;BME280;49698;48.072;7.800;2024-03-02T10:29:39;98033.31;;;13.88;62.17
63552;BME280;49698;48.072;7.800;2024-03-02T10:32:11;98024.75;;;13.99;61.25
63552;BME280;49698;48.072;7.800;2024-03-02T10:34:39;98036.22;;;14.08;59.30
63552;BME280;49698;48.072;7.800;2024-03-02T10:37:08;98028.78;;;14.17;58.57
63552;BME280;49698;48.072;7.800;2024-03-02T10:39:36;98027.19;;;14.28;57.10
63552;BME280;49698;48.072;7.800;2024-03-02T10:42:06;98032.03;;;14.35;56.65
63552;BME280;49698;48.072;7.800;2024-03-02T10:44:34;98029.44;;;14.38;55.57
63552;BME280;49698;48.072;7.800;2024-03-02T10:47:03;98029.44;;;14.38;53.63
63552;BME280;49698;48.072;7.800;2024-03-02T10:49:32;98027.06;;;14.37;53.87
63552;BME280;49698;48.072;7.800;2024-03-02T10:52:01;98022.00;;;14.35;54.35
63552;BME280;49698;48.072;7.800;2024-03-02T10:54:28;98020.44;;;14.34;53.93
63552;BME280;49698;48.072;7.800;2024-03-02T10:57:02;98011.84;;;14.32;54.15
63552;BME280;49698;48.072;7.800;2024-03-02T10:59:32;98010.75;;;14.33;53.77
63552;BME280;49698;48.072;7.800;2024-03-02T11:02:00;98007.81;;;14.38;53.92
63552;BME280;49698;48.072;7.800;2024-03-02T11:04:30;98012.75;;;14.49;52.90
63552;BME280;49698;48.072;7.800;2024-03-02T11:07:02;98010.19;;;14.52;53.01
63552;BME280;49698;48.072;7.800;2024-03-02T11:09:32;98010.13;;;14.64;52.27
63552;BME280;49698;48.072;7.800;2024-03-02T11:12:03;98008.84;;;14.74;51.41
63552;BME280;49698;48.072;7.800;2024-03-02T11:14:34;98009.72;;;14.78;50.96
63552;BME280;49698;48.072;7.800;2024-03-02T11:17:05;98013.69;;;14.81;50.18
63552;BME280;49698;48.072;7.800;2024-03-02T11:19:33;98001.72;;;14.82;50.11
63552;BME280;49698;48.072;7.800;2024-03-02T11:22:04;98005.97;;;14.83;49.71
63552;BME280;49698;48.072;7.800;2024-03-02T11:24:32;97990.56;;;14.83;49.63
63552;BME280;49698;48.072;7.800;2024-03-02T11:27:03;98000.00;;;14.89;49.39
63552;BME280;49698;48.072;7.800;2024-03-02T11:29:43;97997.06;;;14.95;49.17
63552;BME280;49698;48.072;7.800;2024-03-02T11:32:18;97997.00;;;15.07;49.14
63552;BME280;49698;48.072;7.800;2024-03-02T11:34:48;97990.28;;;15.16;48.53
63552;BME280;49698;48.072;7.800;2024-03-02T11:37:18;97987.22;;;15.18;48.65
63552;BME280;49698;48.072;7.800;2024-03-02T11:39:49;97974.81;;;15.17;48.83
63552;BME280;49698;48.072;7.800;2024-03-02T11:42:17;97979.91;;;15.19;48.82
63552;BME280;49698;48.072;7.800;2024-03-02T11:44:46;97976.50;;;15.22;48.93
63552;BME280;49698;48.072;7.800;2024-03-02T11:47:15;97971.78;;;15.34;48.47
63552;BME280;49698;48.072;7.800;2024-03-02T11:49:43;97965.03;;;15.44;48.16
63552;BME280;49698;48.072;7.800;2024-03-02T11:52:12;97962.09;;;15.49;47.71
63552;BME280;49698;48.072;7.800;2024-03-02T11:54:43;97950.53;;;15.52;47.23
63552;BME280;49698;48.072;7.800;2024-03-02T11:57:15;97951.94;;;15.62;47.61
63552;BME280;49698;48.072;7.800;2024-03-02T11:59:44;97948.00;;;15.75;47.37
63552;BME280;49698;48.072;7.800;2024-03-02T12:02:15;97941.38;;;15.88;47.29
63552;BME280;49698;48.072;7.800;2024-03-02T12:04:44;97943.66;;;16.06;47.32
63552;BME280;49698;48.072;7.800;2024-03-02T12:07:13;97933.56;;;16.22;46.18
63552;BME280;49698;48.072;7.800;2024-03-02T12:09:47;97935.78;;;16.36;45.93
63552;BME280;49698;48.072;7.800;2024-03-02T12:12:15;97933.63;;;16.45;45.42
63552;BME280;49698;48.072;7.800;2024-03-02T12:14:49;97930.91;;;16.45;44.06
63552;BME280;49698;48.072;7.800;2024-03-02T12:17:18;97927.28;;;16.37;43.95
63552;BME280;49698;48.072;7.800;2024-03-02T12:19:45;97929.03;;;16.26;43.51
63552;BME280;49698;48.072;7.800;2024-03-02T12:22:13;97924.94;;;16.17;44.03
63552;BME280;49698;48.072;7.800;2024-03-02T12:24:42;97926.28;;;16.07;44.02
63552;BME280;49698;48.072;7.800;2024-03-02T12:27:13;97921.34;;;15.93;44.33
63552;BME280;49698;48.072;7.800;2024-03-02T12:29:42;97909.91;;;15.84;44.29
63552;BME280;49698;48.072;7.800;2024-03-02T12:32:10;97914.09;;;15.81;44.24
63552;BME280;49698;48.072;7.800;2024-03-02T12:34:38;97911.81;;;15.83;44.67
63552;BME280;49698;48.072;7.800;2024-03-02T12:37:06;97914.28;;;15.88;44.80
63552;BME280;49698;48.072;7.800;2024-03-02T12:39:34;97907.41;;;15.95;44.57
63552;BME280;49698;48.072;7.800;2024-03-02T12:42:02;97901.28;;;15.98;44.61
63552;BME280;49698;48.072;7.800;2024-03-02T12:44:32;97897.50;;;16.02;44.44
63552;BME280;49698;48.072;7.800;2024-03-02T12:46:59;97904.59;;;16.07;44.14
63552;BME280;49698;48.072;7.800;2024-03-02T12:49:27;97890.31;;;16.10;44.33
63552;BME280;49698;48.072;7.800;2024-03-02T12:51:57;97891.16;;;16.14;44.40
63552;BME280;49698;48.072;7.800;2024-03-02T12:54:31;97889.06;;;16.23;44.53
63552;BME280;49698;48.072;7.800;2024-03-02T12:57:02;97880.63;;;16.28;43.92
63552;BME280;49698;48.072;7.800;2024-03-02T12:59:31;97874.84;;;16.30;43.36
63552;BME280;49698;48.072;7.800;2024-03-02T13:01:59;97882.63;;;16.31;43.18
63552;BME280;49698;48.072;7.800;2024-03-02T13:04:28;97882.56;;;16.28;43.39
63552;BME280;49698;48.072;7.800;2024-03-02T13:06:57;97879.47;;;16.29;43.76
63552;BME280;49698;48.072;7.800;2024-03-02T13:09:25;97873.78;;;16.34;43.83
63552;BME280;49698;48.072;7.800;2024-03-02T13:11:54;97869.22;;;16.38;43.73